Terminal Aerodrome Forecast
Issued by NWS Portland, OR

Home | Current Version | Previous Version | Text Only | Print | Product List | Glossary On
Versions: 1 2 3 4 5 6 7 8 9 10 11 12 13 14 15 16 17 18 19 20 21 22 23 24 25 26 27 28 29 30 31 32 33 34 35 36 37 38 39 40 41 42 43 44
000
FTUS46 KPQR 251157 AAA
TAFEUG
TAF AMD
KEUG 251157Z 2512/2612 00000KT 1/4SM FG VV002
     FM251900 00000KT 2SM BR OVC001
     FM252200 VRB02KT 6SM BR BKN004
     FM260200 00000KT 2SM BR OVC004
     FM260600 20004KT 1/2SM FG VV002
     FM260800 VRB03KT 1/4SM FG VV002=

USA.gov is the U.S. government's official web portal to all federal, state and local government web resources and services.